Terminal Aerodrome Forecast
Issued by NWS

Home | Current Version | Previous Version | Text Only | Print | Product List | Glossary On
Versions: 1 2 3 4 5 6 7 8 9 10 11 12 13 14
000
FTUS46 KEKA 122320
TAFCEC
TAF
KCEC 122320Z 1300/1324 33006KT 6SM HZ FEW090 SCT250
     FM130400 11004KT P6SM FEW090
     FM132000 32006KT 6SM HZ SCT250=

USA.gov is the U.S. government's official web portal to all federal, state and local government web resources and services.